Time;durP1;ratioP1;P1;durP2;ratioP2;P2;SDS_P1;SDS_P2;PMS_P1;PMS_P2;Temp;Humidity;BMP_temperature;BMP_pressure;BME280_temperature;BME280_humidity;BME280_pressure;Samples;Min_cycle;Max_cycle;Signal;HPM_P1;HPM_P2
2023/08/20 00:00:52;;;;;;;14.32;5.50;;;20.00;82.10;;;;;;5016570;28;20049;-77
2023/08/20 00:03:18;;;;;;;14.32;5.40;;;20.00;81.90;;;;;;5014051;28;20013;-77
2023/08/20 00:05:44;;;;;;;11.25;5.10;;;20.00;81.90;;;;;;5007076;28;20118;-76
2023/08/20 00:08:09;;;;;;;11.95;5.30;;;20.00;81.90;;;;;;5004737;28;20022;-76
2023/08/20 00:10:35;;;;;;;11.70;4.63;;;19.90;81.90;;;;;;4991667;28;20026;-77
2023/08/20 00:13:01;;;;;;;13.32;5.15;;;19.90;81.80;;;;;;4986575;28;20085;-77
2023/08/20 00:15:27;;;;;;;11.82;4.65;;;19.90;81.80;;;;;;4994971;28;20408;-77
2023/08/20 00:17:55;;;;;;;12.70;4.80;;;19.90;81.90;;;;;;4993308;28;20284;-77
2023/08/20 00:20:21;;;;;;;12.70;4.40;;;19.80;82.00;;;;;;4996158;28;20030;-77
2023/08/20 00:22:47;;;;;;;13.52;4.80;;;19.70;82.10;;;;;;4981440;28;20105;-78
2023/08/20 00:25:15;;;;;;;10.40;4.60;;;19.70;82.20;;;;;;4986463;28;20041;-78
2023/08/20 00:27:41;;;;;;;12.48;5.00;;;19.60;82.10;;;;;;4985613;28;20037;-77
2023/08/20 00:30:08;;;;;;;12.45;4.55;;;19.60;82.20;;;;;;4989599;28;20050;-77
2023/08/20 00:32:34;;;;;;;14.48;4.68;;;19.60;82.30;;;;;;4983978;28;20045;-78
2023/08/20 00:34:59;;;;;;;9.32;4.20;;;19.60;82.30;;;;;;5002257;28;20044;-77
2023/08/20 00:37:25;;;;;;;12.38;4.70;;;19.60;82.30;;;;;;5016468;28;20113;-78
2023/08/20 00:39:51;;;;;;;12.27;4.80;;;19.50;82.30;;;;;;5010905;28;20035;-77
2023/08/20 00:42:17;;;;;;;11.27;4.60;;;19.50;82.50;;;;;;5009214;28;20072;-77
2023/08/20 00:44:46;;;;;;;9.43;3.95;;;19.50;82.50;;;;;;5012676;28;20088;-78
2023/08/20 00:47:13;;;;;;;13.18;4.57;;;19.60;82.60;;;;;;4989681;28;20050;-78
2023/08/20 00:49:40;;;;;;;12.95;4.45;;;19.60;82.50;;;;;;4980439;28;20519;-77
2023/08/20 00:52:09;;;;;;;10.93;4.20;;;19.60;82.40;;;;;;5002102;28;20033;-77
2023/08/20 00:54:35;;;;;;;13.23;5.15;;;19.60;82.40;;;;;;4999978;28;20351;-77
2023/08/20 00:57:02;;;;;;;14.30;4.82;;;19.60;82.30;;;;;;5004356;28;20095;-76
2023/08/20 00:59:31;;;;;;;10.40;4.75;;;19.60;82.40;;;;;;5005683;28;20034;-78
2023/08/20 01:01:57;;;;;;;12.70;4.85;;;19.60;82.30;;;;;;5004085;28;20496;-78
2023/08/20 01:04:23;;;;;;;11.52;4.35;;;19.60;82.10;;;;;;5006522;28;20138;-79
2023/08/20 01:07:26;;;;;;;9.32;4.03;;;19.60;82.00;;;;;;5005152;28;20072;-78
2023/08/20 01:10:23;;;;;;;11.88;4.28;;;19.50;82.10;;;;;;4996807;28;20065;-78
2023/08/20 01:12:49;;;;;;;13.60;4.95;;;19.50;82.00;;;;;;5003087;28;20065;-78
2023/08/20 01:15:16;;;;;;;12.85;4.57;;;19.40;82.10;;;;;;5003028;28;20504;-78
2023/08/20 01:17:42;;;;;;;11.15;4.55;;;19.40;82.30;;;;;;5006893;28;20406;-78
2023/08/20 01:20:12;;;;;;;12.98;4.88;;;19.40;82.40;;;;;;4990362;28;20022;-78
2023/08/20 01:22:44;;;;;;;10.75;4.68;;;19.40;82.20;;;;;;4992131;28;20314;-77
2023/08/20 01:25:22;;;;;;;10.73;4.57;;;19.40;82.20;;;;;;4987461;28;21316;-78
2023/08/20 01:28:15;;;;;;;15.07;5.05;;;19.30;82.20;;;;;;4980400;28;20486;-78
2023/08/20 01:30:42;;;;;;;14.82;4.70;;;19.20;82.20;;;;;;4983118;28;20068;-79
2023/08/20 01:33:09;;;;;;;13.60;4.93;;;19.10;82.30;;;;;;4990481;28;20108;-78
2023/08/20 01:35:35;;;;;;;11.40;4.50;;;19.10;82.30;;;;;;5005562;28;20120;-78
2023/08/20 01:38:00;;;;;;;9.82;4.47;;;19.00;82.40;;;;;;5014426;28;20061;-78
2023/08/20 01:40:26;;;;;;;11.82;4.50;;;19.00;82.50;;;;;;5003820;28;20473;-77
2023/08/20 01:42:52;;;;;;;12.70;4.60;;;19.00;82.50;;;;;;4996711;28;20029;-78
2023/08/20 01:45:18;;;;;;;15.20;4.90;;;18.90;82.60;;;;;;5015650;28;20096;-78
2023/08/20 01:47:44;;;;;;;11.75;4.20;;;18.90;82.60;;;;;;5010322;28;20524;-78
2023/08/20 01:50:10;;;;;;;9.45;4.38;;;18.90;82.50;;;;;;5018068;28;20030;-78
2023/08/20 01:52:35;;;;;;;9.25;3.85;;;18.90;82.50;;;;;;5017779;28;20373;-78
2023/08/20 01:55:01;;;;;;;8.70;4.22;;;18.90;82.50;;;;;;5014689;28;20038;-77
2023/08/20 01:57:27;;;;;;;12.38;4.95;;;18.90;82.40;;;;;;5014570;28;20430;-78
2023/08/20 01:59:52;;;;;;;10.45;4.78;;;18.80;82.20;;;;;;5003336;28;20100;-78
2023/08/20 02:02:18;;;;;;;11.10;4.15;;;18.80;82.10;;;;;;4991725;28;20029;-78
2023/08/20 02:04:44;;;;;;;9.85;4.13;;;18.80;82.10;;;;;;4996789;28;20057;-78
2023/08/20 02:07:09;;;;;;;12.73;4.18;;;18.80;82.20;;;;;;5001641;28;20025;-78
2023/08/20 02:09:35;;;;;;;7.78;3.80;;;18.70;82.20;;;;;;5006509;28;20037;-79
2023/08/20 02:12:01;;;;;;;9.55;4.57;;;18.70;82.30;;;;;;5010517;28;20084;-78
2023/08/20 02:14:28;;;;;;;9.38;4.18;;;18.70;82.40;;;;;;5009191;28;20083;-77
2023/08/20 02:16:54;;;;;;;11.75;4.53;;;18.70;82.40;;;;;;5008571;28;20092;-77
2023/08/20 02:19:20;;;;;;;11.75;4.38;;;18.70;82.40;;;;;;5021112;28;20413;-78
2023/08/20 02:21:45;;;;;;;11.20;4.30;;;18.70;82.30;;;;;;5021263;28;20025;-77
2023/08/20 02:24:11;;;;;;;9.05;4.25;;;18.70;82.20;;;;;;5013511;28;20029;-78
2023/08/20 02:26:37;;;;;;;8.02;4.40;;;18.60;82.30;;;;;;5016175;28;20025;-78
2023/08/20 02:29:03;;;;;;;8.32;3.92;;;18.60;82.40;;;;;;5020473;28;20033;-77
2023/08/20 02:31:28;;;;;;;10.38;3.75;;;18.70;82.50;;;;;;5008540;28;20048;-78
2023/08/20 02:33:54;;;;;;;8.23;3.92;;;18.70;82.50;;;;;;5010918;28;20057;-77
2023/08/20 02:36:20;;;;;;;8.13;4.10;;;18.70;82.40;;;;;;5012303;28;20066;-77
2023/08/20 02:38:46;;;;;;;11.40;4.00;;;18.80;82.40;;;;;;5003980;28;20045;-78
2023/08/20 02:41:12;;;;;;;10.38;4.20;;;18.80;82.30;;;;;;4992981;28;20022;-77
2023/08/20 02:43:37;;;;;;;10.18;4.22;;;18.80;82.20;;;;;;5018999;28;20030;-78
2023/08/20 02:46:03;;;;;;;10.35;3.85;;;18.80;82.20;;;;;;5014076;28;20096;-77
2023/08/20 02:48:29;;;;;;;10.35;3.72;;;18.80;82.20;;;;;;5015302;28;20450;-78
2023/08/20 02:50:55;;;;;;;9.63;3.80;;;18.80;82.00;;;;;;4999310;28;20064;-77
2023/08/20 02:53:22;;;;;;;8.60;3.50;;;18.90;82.00;;;;;;5002763;28;27480;-78
2023/08/20 02:55:48;;;;;;;11.00;4.10;;;18.80;82.00;;;;;;5004849;28;20038;-76
2023/08/20 02:58:14;;;;;;;10.23;3.78;;;18.90;82.00;;;;;;5013001;28;20086;-77
2023/08/20 03:00:40;;;;;;;9.30;3.53;;;18.80;82.10;;;;;;5013955;28;20425;-78
2023/08/20 03:03:08;;;;;;;10.65;4.00;;;18.80;82.00;;;;;;5011408;28;20470;-76
2023/08/20 03:05:34;;;;;;;11.25;4.07;;;18.80;82.00;;;;;;4989534;28;20038;-77
2023/08/20 03:08:01;;;;;;;11.30;4.13;;;18.80;82.10;;;;;;4996955;28;20018;-76
2023/08/20 03:10:33;;;;;;;12.15;4.18;;;18.80;82.20;;;;;;4989823;28;20371;-77
2023/08/20 03:13:00;;;;;;;12.23;4.07;;;18.80;82.20;;;;;;4989142;28;20502;-77
2023/08/20 03:15:27;;;;;;;8.13;3.70;;;18.80;82.20;;;;;;4986172;28;20073;-77
2023/08/20 03:17:52;;;;;;;13.50;4.50;;;18.80;82.30;;;;;;4996878;28;20096;-77
2023/08/20 03:20:18;;;;;;;8.60;4.00;;;18.80;82.30;;;;;;4986643;28;20472;-76
2023/08/20 03:22:44;;;;;;;9.98;4.18;;;18.70;82.30;;;;;;4982142;28;20019;-76
2023/08/20 03:25:09;;;;;;;10.38;3.80;;;18.80;82.20;;;;;;5009584;28;20238;-76
2023/08/20 03:27:35;;;;;;;10.75;4.50;;;18.70;82.10;;;;;;5010754;28;20132;-78
2023/08/20 03:30:02;;;;;;;9.18;4.47;;;18.70;82.20;;;;;;4989936;28;20038;-77
2023/08/20 03:32:27;;;;;;;10.15;4.75;;;18.70;82.30;;;;;;4988084;28;20136;-77
2023/08/20 03:34:53;;;;;;;10.65;4.90;;;18.70;82.00;;;;;;4987801;28;20498;-77
2023/08/20 03:37:19;;;;;;;9.93;4.70;;;18.60;82.10;;;;;;5000126;28;20022;-76
2023/08/20 03:39:45;;;;;;;10.13;5.18;;;18.60;82.40;;;;;;5008330;28;20726;-77
2023/08/20 03:42:11;;;;;;;9.32;4.75;;;18.60;82.50;;;;;;5012575;28;20037;-76
2023/08/20 03:44:36;;;;;;;8.73;4.28;;;18.50;82.50;;;;;;5012088;28;20037;-76
2023/08/20 03:47:02;;;;;;;10.50;4.85;;;18.50;82.80;;;;;;5008353;28;20101;-77
2023/08/20 03:49:28;;;;;;;9.15;4.00;;;18.40;82.90;;;;;;5007073;28;20034;-77
2023/08/20 03:51:54;;;;;;;9.50;4.70;;;18.30;83.00;;;;;;5015677;28;20049;-77
2023/08/20 03:54:19;;;;;;;10.05;4.10;;;18.30;83.20;;;;;;5010764;28;20043;-79
2023/08/20 03:56:45;;;;;;;11.70;4.57;;;18.20;83.20;;;;;;5011570;28;20030;-79
2023/08/20 03:59:11;;;;;;;12.52;4.50;;;18.20;83.10;;;;;;5014093;28;20040;-79
2023/08/20 04:01:37;;;;;;;12.45;5.22;;;18.10;83.10;;;;;;5017336;28;20029;-78
2023/08/20 04:04:03;;;;;;;8.70;4.50;;;18.10;83.20;;;;;;5013809;28;20069;-78
2023/08/20 04:06:29;;;;;;;11.93;4.63;;;18.10;83.40;;;;;;5014435;28;20104;-78
2023/08/20 04:08:55;;;;;;;10.25;4.28;;;18.00;83.60;;;;;;5008053;28;20034;-78
2023/08/20 04:11:21;;;;;;;10.23;4.07;;;17.90;83.80;;;;;;5018181;28;20443;-77
2023/08/20 04:13:46;;;;;;;10.63;4.50;;;17.90;84.00;;;;;;5008471;28;20383;-78
2023/08/20 04:16:13;;;;;;;9.57;4.88;;;17.80;83.90;;;;;;5007439;28;20061;-78
2023/08/20 04:18:39;;;;;;;12.00;4.63;;;17.80;83.80;;;;;;5013770;28;20402;-79
2023/08/20 04:21:05;;;;;;;7.85;4.05;;;17.70;84.00;;;;;;5015212;28;20033;-78
2023/08/20 04:23:31;;;;;;;10.73;4.57;;;17.60;84.20;;;;;;5021209;28;20364;-78
2023/08/20 04:25:56;;;;;;;12.27;4.85;;;17.60;84.40;;;;;;5010109;28;20590;-78
2023/08/20 04:28:22;;;;;;;12.23;4.40;;;17.70;84.60;;;;;;4996511;28;20019;-78
2023/08/20 04:30:49;;;;;;;8.57;4.40;;;17.60;84.80;;;;;;5013825;28;20092;-77
2023/08/20 04:33:14;;;;;;;9.82;4.43;;;17.60;84.90;;;;;;5011952;28;20042;-79
2023/08/20 04:35:40;;;;;;;10.80;4.60;;;17.60;85.10;;;;;;5015312;28;20386;-78
2023/08/20 04:38:06;;;;;;;10.80;4.63;;;17.60;85.20;;;;;;5011022;28;20026;-79
2023/08/20 04:40:31;;;;;;;12.60;6.40;;;17.50;85.20;;;;;;5012993;28;20172;-77
2023/08/20 04:42:57;;;;;;;11.40;4.82;;;17.40;85.30;;;;;;5019012;28;20022;-78
2023/08/20 04:45:22;;;;;;;14.27;4.75;;;17.40;85.40;;;;;;5013079;28;20026;-79
2023/08/20 04:47:48;;;;;;;13.60;5.47;;;17.40;85.60;;;;;;5017232;28;20037;-78
2023/08/20 04:50:14;;;;;;;9.65;4.35;;;17.40;85.70;;;;;;5004495;28;20065;-78
2023/08/20 04:52:40;;;;;;;11.63;4.63;;;17.40;85.80;;;;;;5005901;28;20409;-77
2023/08/20 04:55:07;;;;;;;11.25;4.93;;;17.40;85.60;;;;;;5002708;28;20076;-78
2023/08/20 04:57:33;;;;;;;10.13;4.78;;;17.40;85.60;;;;;;5004397;28;20056;-77
2023/08/20 04:59:58;;;;;;;11.38;5.47;;;17.40;85.60;;;;;;5005102;28;20042;-77
2023/08/20 05:02:24;;;;;;;11.38;4.90;;;17.40;85.50;;;;;;5004316;28;20132;-77
2023/08/20 05:04:50;;;;;;;14.00;4.70;;;17.40;85.70;;;;;;5006509;28;20504;-78
2023/08/20 05:07:16;;;;;;;10.02;4.78;;;17.40;85.70;;;;;;5009800;28;20111;-78
2023/08/20 05:09:42;;;;;;;10.65;4.90;;;17.50;85.60;;;;;;5004697;28;20061;-78
2023/08/20 05:12:08;;;;;;;8.95;4.80;;;17.60;85.40;;;;;;4995820;28;20035;-78
2023/08/20 05:14:34;;;;;;;8.63;4.43;;;17.60;85.10;;;;;;5003847;28;20678;-78
2023/08/20 05:17:00;;;;;;;11.13;5.22;;;17.60;84.80;;;;;;5021688;28;20034;-78
2023/08/20 05:19:25;;;;;;;10.25;4.25;;;17.60;84.70;;;;;;5017980;28;20042;-78
2023/08/20 05:21:55;;;;;;;10.80;4.50;;;17.70;84.80;;;;;;5015910;28;20033;-77
2023/08/20 05:24:21;;;;;;;9.43;4.78;;;17.70;84.70;;;;;;5010925;28;20037;-78
2023/08/20 05:26:47;;;;;;;12.38;5.07;;;17.70;84.60;;;;;;5010549;28;20042;-78
2023/08/20 05:29:13;;;;;;;11.77;5.90;;;17.70;84.50;;;;;;5009508;28;20036;-78
2023/08/20 05:31:38;;;;;;;10.65;4.57;;;17.70;84.80;;;;;;5009437;28;20050;-78
2023/08/20 05:34:04;;;;;;;11.95;5.03;;;17.80;84.80;;;;;;5009243;28;20435;-78
2023/08/20 05:36:29;;;;;;;10.02;4.93;;;17.80;84.70;;;;;;5009571;28;20350;-78
2023/08/20 05:38:55;;;;;;;12.88;4.47;;;17.90;84.60;;;;;;5008576;28;20077;-78
2023/08/20 05:41:21;;;;;;;9.55;4.57;;;17.90;84.50;;;;;;5010012;28;20440;-78
2023/08/20 05:43:46;;;;;;;10.23;4.90;;;18.00;84.30;;;;;;5008241;28;20030;-78
2023/08/20 05:46:12;;;;;;;12.75;5.00;;;18.10;84.20;;;;;;5007741;28;20398;-78
2023/08/20 05:48:38;;;;;;;7.03;4.22;;;18.10;84.10;;;;;;5009658;28;20684;-78
2023/08/20 05:51:03;;;;;;;10.20;4.93;;;18.10;84.00;;;;;;5013949;28;20045;-78
2023/08/20 05:53:29;;;;;;;8.20;4.47;;;18.20;83.90;;;;;;5012976;28;20046;-78
2023/08/20 05:55:55;;;;;;;12.10;5.88;;;18.20;83.60;;;;;;5002915;28;20053;-78
2023/08/20 05:58:20;;;;;;;14.35;5.20;;;18.20;83.60;;;;;;5005860;28;20030;-79
2023/08/20 06:00:46;;;;;;;9.65;4.90;;;18.20;84.00;;;;;;5001354;28;20125;-78
2023/08/20 06:03:12;;;;;;;9.23;4.85;;;18.30;83.90;;;;;;5000057;28;20109;-78
2023/08/20 06:05:38;;;;;;;12.93;5.90;;;18.30;83.90;;;;;;5017529;28;20038;-78
2023/08/20 06:08:04;;;;;;;10.25;4.60;;;18.40;83.80;;;;;;5025707;28;20033;-77
2023/08/20 06:10:30;;;;;;;10.13;4.85;;;18.50;83.70;;;;;;5014805;28;20026;-77
2023/08/20 06:12:57;;;;;;;10.60;5.05;;;18.60;83.70;;;;;;5019281;28;20525;-78
2023/08/20 06:15:22;;;;;;;11.88;6.28;;;18.60;83.40;;;;;;5003661;28;20038;-78
2023/08/20 06:17:48;;;;;;;12.55;5.40;;;18.60;83.10;;;;;;5015292;28;20025;-78
2023/08/20 06:20:13;;;;;;;9.35;5.05;;;18.60;83.20;;;;;;5015661;28;20494;-78
2023/08/20 06:22:39;;;;;;;9.65;5.60;;;18.70;83.40;;;;;;5015401;28;20015;-78
2023/08/20 06:25:05;;;;;;;10.38;5.80;;;18.80;83.00;;;;;;5001110;28;20041;-78
2023/08/20 06:27:31;;;;;;;11.52;6.32;;;18.90;82.90;;;;;;5011856;28;20065;-77
2023/08/20 06:29:57;;;;;;;12.82;6.28;;;18.90;82.90;;;;;;5012971;28;20038;-78
2023/08/20 06:32:25;;;;;;;11.25;5.80;;;19.10;82.90;;;;;;5023056;28;20916;-78
2023/08/20 06:34:51;;;;;;;13.38;6.97;;;19.30;82.50;;;;;;5010973;28;20042;-78
2023/08/20 06:37:17;;;;;;;11.70;5.68;;;19.50;81.60;;;;;;5014053;28;20065;-78
2023/08/20 06:39:42;;;;;;;13.00;5.72;;;19.70;81.50;;;;;;5008662;28;20034;-78
2023/08/20 06:42:08;;;;;;;12.35;5.93;;;20.00;80.80;;;;;;5017841;28;20026;-78
2023/08/20 06:44:35;;;;;;;13.23;6.18;;;20.00;79.50;;;;;;5014434;28;20042;-78
2023/08/20 06:47:00;;;;;;;11.50;6.28;;;20.20;79.50;;;;;;5015697;28;20120;-78
2023/08/20 06:49:26;;;;;;;11.90;6.05;;;20.30;78.80;;;;;;5018205;28;21304;-79
2023/08/20 06:51:52;;;;;;;10.82;6.05;;;20.50;79.00;;;;;;5006647;28;20041;-78
2023/08/20 06:54:17;;;;;;;13.77;6.60;;;20.60;78.60;;;;;;5011706;28;20081;-78
2023/08/20 06:56:43;;;;;;;14.55;8.70;;;20.90;77.90;;;;;;5016767;28;20213;-79
2023/08/20 06:59:10;;;;;;;16.27;7.55;;;21.00;76.60;;;;;;5009534;28;20026;-79
2023/08/20 07:01:36;;;;;;;13.25;6.47;;;21.10;76.40;;;;;;5000553;28;20026;-79
2023/08/20 07:04:02;;;;;;;11.88;6.38;;;21.00;75.40;;;;;;5005769;28;20041;-78
2023/08/20 07:06:27;;;;;;;13.93;6.93;;;21.10;75.50;;;;;;5020519;28;20021;-78
2023/08/20 07:08:53;;;;;;;13.75;7.30;;;21.30;74.80;;;;;;5017013;28;21981;-79
2023/08/20 07:11:19;;;;;;;16.20;6.70;;;21.50;74.60;;;;;;5018770;28;20018;-79
2023/08/20 07:13:45;;;;;;;11.43;5.35;;;21.60;73.40;;;;;;5009725;28;20027;-78
2023/08/20 07:16:11;;;;;;;11.95;5.80;;;21.80;72.30;;;;;;5008396;28;20558;-79
2023/08/20 07:18:36;;;;;;;11.05;5.30;;;21.70;72.50;;;;;;5014302;28;20087;-80
2023/08/20 07:21:02;;;;;;;12.07;5.53;;;21.90;73.60;;;;;;5014252;28;20125;-78
2023/08/20 07:23:28;;;;;;;15.65;5.68;;;22.10;72.80;;;;;;5007918;28;20029;-79
2023/08/20 07:26:08;;;;;;;12.07;5.13;;;22.20;72.00;;;;;;4988958;28;20463;-78
2023/08/20 07:31:18;;;;;;;13.20;4.32;;;22.20;70.90;;;;;;5010308;28;20077;-78
2023/08/20 07:33:48;;;;;;;9.98;4.10;;;22.30;71.10;;;;;;5009006;28;20399;-80
2023/08/20 07:36:14;;;;;;;15.35;4.40;;;22.60;69.90;;;;;;5009906;28;20128;-79
2023/08/20 07:38:42;;;;;;;13.30;4.45;;;22.60;68.90;;;;;;4990937;28;20030;-80
2023/08/20 07:41:12;;;;;;;9.35;3.80;;;22.80;67.60;;;;;;4992229;28;20103;-79
2023/08/20 07:43:38;;;;;;;9.63;4.47;;;22.90;68.10;;;;;;4994815;28;20026;-79
2023/08/20 07:46:04;;;;;;;12.93;5.00;;;22.80;66.90;;;;;;4996821;28;20051;-79
2023/08/20 07:48:30;;;;;;;12.77;5.38;;;22.80;67.40;;;;;;4989856;28;20034;-79
2023/08/20 07:50:56;;;;;;;15.40;5.28;;;22.80;68.70;;;;;;4987820;28;20467;-79
2023/08/20 07:53:22;;;;;;;12.63;4.75;;;22.90;68.90;;;;;;4989929;28;20065;-78
2023/08/20 07:55:47;;;;;;;10.35;3.95;;;22.80;69.70;;;;;;5004674;28;20042;-79
2023/08/20 07:58:13;;;;;;;12.70;6.97;;;22.90;68.10;;;;;;4998460;28;20026;-79
2023/08/20 08:00:39;;;;;;;9.57;5.60;;;23.00;66.50;;;;;;4994165;28;20030;-79
2023/08/20 08:03:04;;;;;;;13.88;6.97;;;23.10;66.50;;;;;;5014479;28;20032;-78
2023/08/20 08:05:30;;;;;;;12.45;6.15;;;23.20;66.70;;;;;;5021540;28;20121;-79
2023/08/20 08:07:56;;;;;;;10.82;5.47;;;23.20;65.70;;;;;;5018308;28;20022;-79
2023/08/20 08:10:22;;;;;;;12.57;5.15;;;23.20;65.80;;;;;;4999069;28;20666;-78
2023/08/20 08:12:47;;;;;;;10.32;3.92;;;23.30;65.60;;;;;;5006819;28;20432;-79
2023/08/20 08:15:13;;;;;;;10.43;3.97;;;23.30;64.40;;;;;;4993118;28;20046;-79
2023/08/20 08:17:39;;;;;;;8.20;3.42;;;23.30;64.20;;;;;;4994061;28;20022;-78
2023/08/20 08:20:05;;;;;;;10.73;5.22;;;23.50;63.80;;;;;;4995868;28;20046;-79
2023/08/20 08:22:31;;;;;;;10.25;4.57;;;23.60;64.80;;;;;;4991724;28;20060;-78
2023/08/20 08:24:57;;;;;;;12.93;4.50;;;23.80;64.30;;;;;;5002521;28;20061;-79
2023/08/20 08:27:23;;;;;;;9.93;4.53;;;23.80;64.60;;;;;;5005816;28;20024;-79
2023/08/20 08:29:48;;;;;;;11.65;5.70;;;24.00;64.60;;;;;;5009290;28;20493;-78
2023/08/20 08:32:14;;;;;;;11.13;4.75;;;24.10;63.40;;;;;;5012892;28;20049;-79
2023/08/20 08:34:40;;;;;;;9.73;4.95;;;24.20;62.20;;;;;;5010702;28;20109;-79
2023/08/20 08:37:05;;;;;;;10.70;4.82;;;24.30;63.20;;;;;;5008554;28;20053;-78
2023/08/20 08:39:32;;;;;;;10.32;4.30;;;24.50;61.60;;;;;;5004831;28;20034;-78
2023/08/20 08:42:05;;;;;;;11.45;4.90;;;24.80;60.80;;;;;;4994314;28;20462;-79
2023/08/20 08:44:37;;;;;;;12.75;3.80;;;24.70;61.90;;;;;;5001966;28;20026;-79
2023/08/20 08:47:04;;;;;;;8.88;3.83;;;24.80;61.50;;;;;;5018192;28;20461;-78
2023/08/20 08:49:33;;;;;;;9.88;4.65;;;24.80;59.90;;;;;;4999674;28;20664;-78
2023/08/20 08:51:59;;;;;;;8.88;3.75;;;24.60;61.90;;;;;;4995257;28;20068;-78
2023/08/20 08:54:26;;;;;;;9.98;3.03;;;24.90;59.50;;;;;;4984156;28;20051;-78
2023/08/20 08:56:52;;;;;;;8.57;2.88;;;24.80;59.10;;;;;;4991414;28;20035;-79
2023/08/20 08:59:18;;;;;;;11.25;3.58;;;25.00;58.90;;;;;;5004769;28;20048;-78
2023/08/20 09:01:43;;;;;;;7.80;2.75;;;25.20;59.10;;;;;;5014976;28;20477;-79
2023/08/20 09:04:09;;;;;;;6.72;2.63;;;25.10;58.50;;;;;;5004204;28;20022;-78
2023/08/20 09:06:49;;;;;;;8.10;2.47;;;25.00;57.30;;;;;;4997156;28;20018;-78
2023/08/20 09:09:16;;;;;;;7.85;2.67;;;25.00;58.70;;;;;;4991794;28;20030;-78
2023/08/20 09:11:42;;;;;;;9.65;3.13;;;25.20;58.80;;;;;;4993593;28;20034;-79
2023/08/20 09:14:08;;;;;;;8.63;2.83;;;25.30;58.80;;;;;;4985870;28;20031;-78
2023/08/20 09:16:33;;;;;;;9.27;2.97;;;25.30;58.70;;;;;;4983431;28;20031;-78
2023/08/20 09:19:01;;;;;;;8.68;2.70;;;25.40;59.20;;;;;;4985107;28;20247;-78
2023/08/20 09:21:31;;;;;;;7.38;2.55;;;25.10;60.50;;;;;;4988169;28;20030;-78
2023/08/20 09:24:00;;;;;;;7.30;2.42;;;25.30;60.00;;;;;;5003131;28;20118;-78
2023/08/20 09:26:26;;;;;;;8.05;2.50;;;25.40;58.70;;;;;;5017459;28;20022;-78
2023/08/20 09:28:56;;;;;;;6.53;1.85;;;25.30;58.50;;;;;;5015959;28;20056;-78
2023/08/20 09:31:37;;;;;;;7.25;1.85;;;25.50;57.60;;;;;;5013743;28;20474;-78
2023/08/20 09:34:03;;;;;;;8.07;1.98;;;25.60;56.50;;;;;;5008525;27;20431;-78
2023/08/20 09:36:34;;;;;;;6.90;1.85;;;25.70;55.70;;;;;;5005346;28;20052;-79
2023/08/20 09:39:02;;;;;;;5.10;1.48;;;25.60;55.30;;;;;;5015740;28;20041;-78
2023/08/20 09:41:28;;;;;;;8.85;1.88;;;25.70;55.50;;;;;;5009559;28;20438;-78
2023/08/20 09:43:58;;;;;;;5.97;1.80;;;25.90;55.60;;;;;;5004310;28;20114;-78
2023/08/20 09:46:31;;;;;;;7.22;1.77;;;26.00;54.30;;;;;;5004992;28;20121;-78
2023/08/20 09:48:57;;;;;;;5.05;1.77;;;25.90;55.50;;;;;;5003431;28;20108;-78
2023/08/20 09:51:28;;;;;;;5.68;1.58;;;26.00;54.80;;;;;;5006149;28;20022;-79
2023/08/20 09:54:21;;;;;;;5.68;1.40;;;26.40;54.80;;;;;;5004601;28;20061;-78
2023/08/20 09:56:53;;;;;;;7.82;1.80;;;26.20;53.20;;;;;;5005765;28;20050;-78
2023/08/20 09:59:20;;;;;;;7.88;1.90;;;26.30;53.00;;;;;;5002299;28;20038;-78
2023/08/20 10:01:47;;;;;;;6.22;1.85;;;26.20;53.40;;;;;;5017555;28;20033;-79
2023/08/20 10:04:15;;;;;;;8.98;1.58;;;26.50;52.00;;;;;;5008994;28;20487;-78
2023/08/20 10:06:42;;;;;;;5.50;1.63;;;26.40;52.60;;;;;;5008968;28;20121;-78
2023/08/20 10:09:08;;;;;;;5.88;1.55;;;26.60;53.80;;;;;;4999794;28;20497;-78
2023/08/20 10:11:34;;;;;;;5.57;1.38;;;26.40;51.90;;;;;;4997284;28;20030;-79
2023/08/20 10:14:00;;;;;;;6.32;1.50;;;26.60;51.70;;;;;;4996241;28;20049;-79
2023/08/20 10:16:28;;;;;;;5.45;1.42;;;26.60;52.20;;;;;;4986531;28;20062;-78
2023/08/20 10:18:55;;;;;;;5.53;1.40;;;26.60;50.20;;;;;;4988691;28;20050;-78
2023/08/20 10:21:25;;;;;;;6.30;1.50;;;26.70;50.80;;;;;;4987508;28;20463;-78
2023/08/20 10:23:50;;;;;;;4.93;1.52;;;26.70;50.80;;;;;;4989304;28;20034;-78
2023/08/20 10:26:16;;;;;;;6.72;1.90;;;27.10;50.20;;;;;;4989439;28;20026;-78
2023/08/20 10:28:42;;;;;;;5.60;1.38;;;27.30;51.40;;;;;;4988130;28;20082;-78
2023/08/20 10:31:12;;;;;;;3.80;1.23;;;27.30;51.60;;;;;;4988659;28;20474;-78
2023/08/20 10:33:49;;;;;;;6.72;1.58;;;27.60;50.70;;;;;;4996021;28;20150;-78
2023/08/20 10:36:26;;;;;;;5.82;1.42;;;27.90;49.30;;;;;;5016925;28;20045;-78
2023/08/20 10:38:55;;;;;;;4.65;1.30;;;28.10;48.30;;;;;;5013464;28;20046;-78
2023/08/20 10:41:28;;;;;;;5.60;1.33;;;27.80;47.30;;;;;;5011761;28;20485;-78
2023/08/20 10:43:58;;;;;;;7.97;1.63;;;27.70;48.10;;;;;;5002292;28;20038;-79
2023/08/20 10:46:25;;;;;;;6.90;1.50;;;28.10;47.30;;;;;;5018778;28;20033;-78
2023/08/20 10:48:58;;;;;;;5.47;1.60;;;28.20;46.80;;;;;;5020963;28;20030;-78
2023/08/20 10:51:25;;;;;;;5.90;1.37;;;28.30;47.70;;;;;;5019738;28;20422;-79
2023/08/20 10:54:00;;;;;;;5.30;1.52;;;28.30;46.40;;;;;;5014130;28;20288;-78
2023/08/20 10:56:38;;;;;;;5.75;1.50;;;28.40;47.00;;;;;;4998893;28;20042;-78
2023/08/20 10:59:23;;;;;;;6.95;1.70;;;28.40;47.20;;;;;;5005097;28;20038;-79
2023/08/20 11:01:50;;;;;;;7.05;1.52;;;28.60;45.70;;;;;;5015142;28;20034;-79
2023/08/20 11:04:21;;;;;;;6.45;1.88;;;28.50;46.70;;;;;;5017310;28;20030;-78
2023/08/20 11:06:52;;;;;;;7.00;2.10;;;27.90;47.50;;;;;;5013982;28;20025;-78
2023/08/20 11:09:18;;;;;;;4.75;1.48;;;27.50;48.90;;;;;;5014927;28;20038;-78
2023/08/20 11:11:44;;;;;;;5.88;1.23;;;27.30;50.00;;;;;;5013997;28;20080;-78
2023/08/20 11:14:14;;;;;;;5.28;1.30;;;27.80;49.30;;;;;;5011020;28;20030;-78
2023/08/20 11:16:44;;;;;;;7.32;1.85;;;28.10;48.70;;;;;;5012839;28;20101;-78
2023/08/20 11:19:09;;;;;;;4.88;1.80;;;28.50;47.20;;;;;;5017599;28;20034;-78
2023/08/20 11:21:37;;;;;;;5.53;1.52;;;28.50;46.20;;;;;;5018781;28;20021;-78
2023/08/20 11:24:04;;;;;;;9.05;1.77;;;28.00;47.30;;;;;;5010506;28;20034;-78
2023/08/20 11:26:30;;;;;;;5.50;1.63;;;28.00;47.10;;;;;;5008428;28;20035;-78
2023/08/20 11:28:56;;;;;;;8.82;2.03;;;28.00;47.40;;;;;;5015325;28;20121;-78
2023/08/20 11:31:22;;;;;;;7.45;1.73;;;28.40;46.10;;;;;;5016587;28;20108;-78
2023/08/20 11:33:49;;;;;;;7.22;1.67;;;28.50;46.20;;;;;;5012125;28;20366;-78
2023/08/20 11:36:20;;;;;;;6.07;1.42;;;28.30;46.00;;;;;;5009474;28;20038;-78
2023/08/20 11:38:55;;;;;;;7.20;1.85;;;28.80;46.10;;;;;;5018186;28;20033;-78
2023/08/20 11:41:22;;;;;;;6.95;1.83;;;29.00;45.60;;;;;;5013539;28;20049;-78
2023/08/20 11:43:52;;;;;;;5.43;1.52;;;29.00;44.70;;;;;;5010944;28;20083;-78
2023/08/20 11:46:23;;;;;;;4.80;1.42;;;29.20;44.90;;;;;;4987301;28;20053;-78
2023/08/20 11:49:10;;;;;;;5.47;1.40;;;29.00;45.50;;;;;;4989741;28;20061;-79
2023/08/20 11:51:37;;;;;;;5.20;1.70;;;28.90;45.80;;;;;;5002801;28;20113;-78
2023/08/20 11:54:08;;;;;;;5.93;1.55;;;29.10;46.00;;;;;;4992375;28;20053;-78
2023/08/20 11:56:35;;;;;;;6.03;1.83;;;29.20;45.00;;;;;;4989737;28;20352;-78
2023/08/20 11:59:02;;;;;;;6.15;1.70;;;29.40;45.10;;;;;;5001359;28;20087;-78
2023/08/20 12:01:31;;;;;;;7.38;1.65;;;29.60;44.50;;;;;;5022010;28;20040;-78
2023/08/20 12:04:04;;;;;;;5.80;1.60;;;29.70;44.00;;;;;;5016123;28;20034;-79
2023/08/20 12:06:31;;;;;;;6.55;2.17;;;29.50;43.90;;;;;;5019211;28;20065;-79
2023/08/20 12:08:57;;;;;;;6.85;1.65;;;29.60;43.40;;;;;;5009580;28;20132;-78
2023/08/20 12:11:29;;;;;;;5.45;1.55;;;29.60;43.60;;;;;;4999546;28;20089;-78
2023/08/20 12:13:56;;;;;;;6.05;1.70;;;29.00;45.90;;;;;;4996635;28;20042;-78
2023/08/20 12:16:23;;;;;;;5.18;1.20;;;28.90;45.70;;;;;;5009928;28;20045;-78
2023/08/20 12:18:49;;;;;;;4.20;1.40;;;28.90;47.00;;;;;;5008720;28;20031;-78
2023/08/20 12:21:15;;;;;;;5.95;1.60;;;29.10;45.90;;;;;;5003166;28;20037;-78
2023/08/20 12:23:41;;;;;;;4.30;1.30;;;29.00;45.50;;;;;;5004209;28;20050;-78
2023/08/20 12:26:10;;;;;;;5.85;1.83;;;28.80;46.40;;;;;;5000473;28;20520;-78
2023/08/20 12:28:35;;;;;;;7.53;1.80;;;28.60;46.90;;;;;;5012042;28;20026;-78
2023/08/20 12:31:02;;;;;;;9.23;2.30;;;28.80;46.80;;;;;;5004582;28;20375;-78
2023/08/20 12:33:28;;;;;;;5.80;1.42;;;28.60;47.00;;;;;;5014281;28;20033;-78
2023/08/20 12:35:55;;;;;;;7.47;1.77;;;28.80;47.20;;;;;;5005205;28;20042;-78
2023/08/20 12:38:21;;;;;;;7.28;1.90;;;28.80;45.90;;;;;;5006921;28;20117;-79
2023/08/20 12:40:46;;;;;;;5.70;1.77;;;29.00;47.70;;;;;;4991763;28;20112;-79
2023/08/20 12:43:12;;;;;;;5.47;1.70;;;29.30;45.90;;;;;;4997011;28;20026;-79